sensor_id;sensor_type;location;lat;lon;timestamp;P1;durP1;ratioP1;P2;durP2;ratioP2
68866;SDS011;56451;44.804;20.476;2023-05-20T00:02:17;32.65;;;20.50;;
68866;SDS011;56451;44.804;20.476;2023-05-20T00:04:42;29.02;;;18.98;;
68866;SDS011;56451;44.804;20.476;2023-05-20T00:07:08;28.53;;;20.33;;
68866;SDS011;56451;44.804;20.476;2023-05-20T00:09:37;27.77;;;18.27;;
68866;SDS011;56451;44.804;20.476;2023-05-20T00:12:04;26.88;;;18.80;;
68866;SDS011;56451;44.804;20.476;2023-05-20T00:14:30;28.50;;;19.08;;
68866;SDS011;56451;44.804;20.476;2023-05-20T00:16:56;26.83;;;18.83;;
68866;SDS011;56451;44.804;20.476;2023-05-20T00:19:22;27.23;;;18.83;;
68866;SDS011;56451;44.804;20.476;2023-05-20T00:21:48;26.73;;;19.92;;
68866;SDS011;56451;44.804;20.476;2023-05-20T00:24:14;29.75;;;20.92;;
68866;SDS011;56451;44.804;20.476;2023-05-20T00:26:40;24.33;;;19.57;;
68866;SDS011;56451;44.804;20.476;2023-05-20T00:29:06;29.65;;;20.63;;
68866;SDS011;56451;44.804;20.476;2023-05-20T00:31:32;31.97;;;19.80;;
68866;SDS011;56451;44.804;20.476;2023-05-20T00:33:58;32.45;;;21.42;;
68866;SDS011;56451;44.804;20.476;2023-05-20T00:36:24;29.13;;;19.75;;
68866;SDS011;56451;44.804;20.476;2023-05-20T00:38:52;28.15;;;20.30;;
68866;SDS011;56451;44.804;20.476;2023-05-20T00:41:17;33.33;;;19.70;;
68866;SDS011;56451;44.804;20.476;2023-05-20T00:43:44;27.05;;;19.42;;
68866;SDS011;56451;44.804;20.476;2023-05-20T00:46:10;29.92;;;19.90;;
68866;SDS011;56451;44.804;20.476;2023-05-20T00:48:40;26.57;;;19.40;;
68866;SDS011;56451;44.804;20.476;2023-05-20T00:51:09;29.17;;;19.30;;
68866;SDS011;56451;44.804;20.476;2023-05-20T00:53:36;28.80;;;19.90;;
68866;SDS011;56451;44.804;20.476;2023-05-20T00:56:02;35.42;;;21.85;;
68866;SDS011;56451;44.804;20.476;2023-05-20T00:58:29;28.88;;;20.42;;
68866;SDS011;56451;44.804;20.476;2023-05-20T01:00:56;33.20;;;22.57;;
68866;SDS011;56451;44.804;20.476;2023-05-20T01:03:21;33.58;;;21.73;;
68866;SDS011;56451;44.804;20.476;2023-05-20T01:05:47;33.42;;;21.50;;
68866;SDS011;56451;44.804;20.476;2023-05-20T01:08:13;30.87;;;20.67;;
68866;SDS011;56451;44.804;20.476;2023-05-20T01:10:43;30.55;;;21.38;;
68866;SDS011;56451;44.804;20.476;2023-05-20T01:13:19;31.60;;;21.50;;
68866;SDS011;56451;44.804;20.476;2023-05-20T01:15:51;30.52;;;20.27;;
68866;SDS011;56451;44.804;20.476;2023-05-20T01:18:20;30.40;;;20.93;;
68866;SDS011;56451;44.804;20.476;2023-05-20T01:20:50;29.45;;;19.63;;
68866;SDS011;56451;44.804;20.476;2023-05-20T01:23:19;28.58;;;19.70;;
68866;SDS011;56451;44.804;20.476;2023-05-20T01:25:46;28.67;;;18.73;;
68866;SDS011;56451;44.804;20.476;2023-05-20T01:28:12;25.83;;;18.77;;
68866;SDS011;56451;44.804;20.476;2023-05-20T01:30:43;25.63;;;18.77;;
68866;SDS011;56451;44.804;20.476;2023-05-20T01:33:16;27.95;;;18.35;;
68866;SDS011;56451;44.804;20.476;2023-05-20T01:35:45;25.67;;;18.80;;
68866;SDS011;56451;44.804;20.476;2023-05-20T01:38:12;26.95;;;17.88;;
68866;SDS011;56451;44.804;20.476;2023-05-20T01:40:40;24.40;;;18.42;;
68866;SDS011;56451;44.804;20.476;2023-05-20T01:43:07;23.63;;;18.03;;
68866;SDS011;56451;44.804;20.476;2023-05-20T01:45:34;30.38;;;18.50;;
68866;SDS011;56451;44.804;20.476;2023-05-20T01:48:01;25.63;;;18.23;;
68866;SDS011;56451;44.804;20.476;2023-05-20T01:50:27;28.98;;;19.15;;
68866;SDS011;56451;44.804;20.476;2023-05-20T01:52:53;27.23;;;18.30;;
68866;SDS011;56451;44.804;20.476;2023-05-20T01:55:18;29.15;;;18.55;;
68866;SDS011;56451;44.804;20.476;2023-05-20T01:57:45;27.00;;;18.88;;
68866;SDS011;56451;44.804;20.476;2023-05-20T02:00:11;27.08;;;18.40;;
68866;SDS011;56451;44.804;20.476;2023-05-20T02:02:40;26.63;;;17.88;;
68866;SDS011;56451;44.804;20.476;2023-05-20T02:05:09;25.73;;;17.50;;
68866;SDS011;56451;44.804;20.476;2023-05-20T02:07:35;26.27;;;17.98;;
68866;SDS011;56451;44.804;20.476;2023-05-20T02:10:01;27.65;;;18.25;;
68866;SDS011;56451;44.804;20.476;2023-05-20T02:12:27;28.48;;;19.48;;
68866;SDS011;56451;44.804;20.476;2023-05-20T02:14:53;30.50;;;18.17;;
68866;SDS011;56451;44.804;20.476;2023-05-20T02:17:20;30.15;;;19.77;;
68866;SDS011;56451;44.804;20.476;2023-05-20T02:19:46;29.77;;;19.95;;
68866;SDS011;56451;44.804;20.476;2023-05-20T02:22:12;31.27;;;19.90;;
68866;SDS011;56451;44.804;20.476;2023-05-20T02:24:39;27.95;;;18.75;;
68866;SDS011;56451;44.804;20.476;2023-05-20T02:27:05;28.47;;;18.27;;
68866;SDS011;56451;44.804;20.476;2023-05-20T02:29:32;26.10;;;18.80;;
68866;SDS011;56451;44.804;20.476;2023-05-20T02:31:59;29.17;;;17.88;;
68866;SDS011;56451;44.804;20.476;2023-05-20T02:34:27;28.92;;;18.45;;
68866;SDS011;56451;44.804;20.476;2023-05-20T02:36:54;27.95;;;18.77;;
68866;SDS011;56451;44.804;20.476;2023-05-20T02:39:21;26.13;;;18.23;;
68866;SDS011;56451;44.804;20.476;2023-05-20T02:41:48;24.75;;;17.17;;
68866;SDS011;56451;44.804;20.476;2023-05-20T02:44:14;26.50;;;18.75;;
68866;SDS011;56451;44.804;20.476;2023-05-20T02:46:41;27.40;;;18.55;;
68866;SDS011;56451;44.804;20.476;2023-05-20T02:49:07;28.30;;;19.13;;
68866;SDS011;56451;44.804;20.476;2023-05-20T02:51:33;26.40;;;18.67;;
68866;SDS011;56451;44.804;20.476;2023-05-20T02:53:59;26.77;;;18.35;;
68866;SDS011;56451;44.804;20.476;2023-05-20T02:56:25;27.90;;;17.73;;
68866;SDS011;56451;44.804;20.476;2023-05-20T02:58:51;26.80;;;17.77;;
68866;SDS011;56451;44.804;20.476;2023-05-20T03:01:17;23.88;;;17.65;;
68866;SDS011;56451;44.804;20.476;2023-05-20T03:03:43;27.85;;;18.63;;
68866;SDS011;56451;44.804;20.476;2023-05-20T03:06:09;23.93;;;16.77;;
68866;SDS011;56451;44.804;20.476;2023-05-20T03:08:35;26.35;;;16.67;;
68866;SDS011;56451;44.804;20.476;2023-05-20T03:11:01;20.88;;;16.38;;
68866;SDS011;56451;44.804;20.476;2023-05-20T03:13:27;21.98;;;15.50;;
68866;SDS011;56451;44.804;20.476;2023-05-20T03:15:53;24.20;;;16.30;;
68866;SDS011;56451;44.804;20.476;2023-05-20T03:18:19;25.58;;;16.70;;
68866;SDS011;56451;44.804;20.476;2023-05-20T03:20:45;26.85;;;17.63;;
68866;SDS011;56451;44.804;20.476;2023-05-20T03:23:11;24.20;;;16.98;;
68866;SDS011;56451;44.804;20.476;2023-05-20T03:25:37;24.80;;;17.50;;
68866;SDS011;56451;44.804;20.476;2023-05-20T03:28:04;24.83;;;17.23;;
68866;SDS011;56451;44.804;20.476;2023-05-20T03:30:33;26.10;;;17.35;;
68866;SDS011;56451;44.804;20.476;2023-05-20T03:32:59;24.42;;;17.10;;
68866;SDS011;56451;44.804;20.476;2023-05-20T03:35:28;22.92;;;16.95;;
68866;SDS011;56451;44.804;20.476;2023-05-20T03:37:54;22.77;;;16.27;;
68866;SDS011;56451;44.804;20.476;2023-05-20T03:40:22;24.35;;;16.67;;
68866;SDS011;56451;44.804;20.476;2023-05-20T03:42:48;22.75;;;16.75;;
68866;SDS011;56451;44.804;20.476;2023-05-20T03:45:17;28.30;;;17.17;;
68866;SDS011;56451;44.804;20.476;2023-05-20T03:47:56;25.17;;;17.55;;
68866;SDS011;56451;44.804;20.476;2023-05-20T03:50:22;25.87;;;17.60;;
68866;SDS011;56451;44.804;20.476;2023-05-20T03:52:47;25.20;;;17.42;;
68866;SDS011;56451;44.804;20.476;2023-05-20T03:55:15;26.30;;;18.23;;
68866;SDS011;56451;44.804;20.476;2023-05-20T03:57:41;29.83;;;19.02;;
68866;SDS011;56451;44.804;20.476;2023-05-20T04:00:07;25.23;;;17.73;;
68866;SDS011;56451;44.804;20.476;2023-05-20T04:02:42;26.42;;;18.35;;
68866;SDS011;56451;44.804;20.476;2023-05-20T04:05:09;24.20;;;16.40;;
68866;SDS011;56451;44.804;20.476;2023-05-20T04:07:37;25.90;;;17.58;;
68866;SDS011;56451;44.804;20.476;2023-05-20T04:10:05;26.93;;;17.37;;
68866;SDS011;56451;44.804;20.476;2023-05-20T04:12:31;25.40;;;17.42;;
68866;SDS011;56451;44.804;20.476;2023-05-20T04:15:01;30.48;;;18.40;;
68866;SDS011;56451;44.804;20.476;2023-05-20T04:17:31;28.85;;;19.27;;
68866;SDS011;56451;44.804;20.476;2023-05-20T04:19:57;29.67;;;20.23;;
68866;SDS011;56451;44.804;20.476;2023-05-20T04:22:26;33.73;;;24.73;;
68866;SDS011;56451;44.804;20.476;2023-05-20T04:24:52;49.33;;;31.08;;
68866;SDS011;56451;44.804;20.476;2023-05-20T04:27:18;45.75;;;32.72;;
68866;SDS011;56451;44.804;20.476;2023-05-20T04:29:45;46.33;;;31.60;;
68866;SDS011;56451;44.804;20.476;2023-05-20T04:32:12;45.70;;;30.93;;
68866;SDS011;56451;44.804;20.476;2023-05-20T04:34:39;41.25;;;29.15;;
68866;SDS011;56451;44.804;20.476;2023-05-20T04:37:05;41.60;;;27.70;;
68866;SDS011;56451;44.804;20.476;2023-05-20T04:39:34;36.50;;;25.02;;
68866;SDS011;56451;44.804;20.476;2023-05-20T04:42:01;39.22;;;23.38;;
68866;SDS011;56451;44.804;20.476;2023-05-20T04:44:28;32.70;;;21.40;;
68866;SDS011;56451;44.804;20.476;2023-05-20T04:46:54;38.92;;;24.52;;
68866;SDS011;56451;44.804;20.476;2023-05-20T04:49:23;35.65;;;24.85;;
68866;SDS011;56451;44.804;20.476;2023-05-20T04:51:54;33.85;;;24.55;;
68866;SDS011;56451;44.804;20.476;2023-05-20T04:54:20;34.40;;;22.97;;
68866;SDS011;56451;44.804;20.476;2023-05-20T04:56:46;33.60;;;22.17;;
68866;SDS011;56451;44.804;20.476;2023-05-20T04:59:13;34.20;;;21.10;;
68866;SDS011;56451;44.804;20.476;2023-05-20T05:01:39;32.45;;;21.88;;
68866;SDS011;56451;44.804;20.476;2023-05-20T05:04:05;29.73;;;20.58;;
68866;SDS011;56451;44.804;20.476;2023-05-20T05:06:31;32.55;;;21.27;;
68866;SDS011;56451;44.804;20.476;2023-05-20T05:08:58;27.20;;;19.37;;
68866;SDS011;56451;44.804;20.476;2023-05-20T05:11:25;30.83;;;20.30;;
68866;SDS011;56451;44.804;20.476;2023-05-20T05:13:51;32.85;;;24.15;;
68866;SDS011;56451;44.804;20.476;2023-05-20T05:16:20;33.58;;;22.20;;
68866;SDS011;56451;44.804;20.476;2023-05-20T05:18:46;31.50;;;22.40;;
68866;SDS011;56451;44.804;20.476;2023-05-20T05:21:11;27.75;;;19.95;;
68866;SDS011;56451;44.804;20.476;2023-05-20T05:23:37;29.25;;;19.17;;
68866;SDS011;56451;44.804;20.476;2023-05-20T05:26:04;27.60;;;18.17;;
68866;SDS011;56451;44.804;20.476;2023-05-20T05:28:29;25.07;;;16.40;;
68866;SDS011;56451;44.804;20.476;2023-05-20T05:30:56;32.03;;;21.05;;
68866;SDS011;56451;44.804;20.476;2023-05-20T05:33:22;37.83;;;24.17;;
68866;SDS011;56451;44.804;20.476;2023-05-20T05:35:48;42.63;;;25.47;;
68866;SDS011;56451;44.804;20.476;2023-05-20T05:38:15;36.70;;;23.00;;
68866;SDS011;56451;44.804;20.476;2023-05-20T05:40:41;33.75;;;23.65;;
68866;SDS011;56451;44.804;20.476;2023-05-20T05:43:07;39.05;;;23.52;;
68866;SDS011;56451;44.804;20.476;2023-05-20T05:45:34;38.45;;;22.85;;
68866;SDS011;56451;44.804;20.476;2023-05-20T05:48:00;36.10;;;21.57;;
68866;SDS011;56451;44.804;20.476;2023-05-20T05:50:26;35.83;;;23.02;;
68866;SDS011;56451;44.804;20.476;2023-05-20T05:52:52;30.10;;;20.83;;
68866;SDS011;56451;44.804;20.476;2023-05-20T05:55:19;30.58;;;20.33;;
68866;SDS011;56451;44.804;20.476;2023-05-20T05:57:46;28.73;;;18.23;;
68866;SDS011;56451;44.804;20.476;2023-05-20T06:00:14;29.75;;;18.10;;
68866;SDS011;56451;44.804;20.476;2023-05-20T06:02:44;24.50;;;18.42;;
68866;SDS011;56451;44.804;20.476;2023-05-20T06:05:13;26.13;;;17.52;;
68866;SDS011;56451;44.804;20.476;2023-05-20T06:07:42;27.77;;;18.95;;
68866;SDS011;56451;44.804;20.476;2023-05-20T06:10:08;28.67;;;17.90;;
68866;SDS011;56451;44.804;20.476;2023-05-20T06:12:35;28.02;;;18.80;;
68866;SDS011;56451;44.804;20.476;2023-05-20T06:15:01;25.77;;;18.35;;
68866;SDS011;56451;44.804;20.476;2023-05-20T06:17:27;24.23;;;17.30;;
68866;SDS011;56451;44.804;20.476;2023-05-20T06:19:53;26.50;;;17.57;;
68866;SDS011;56451;44.804;20.476;2023-05-20T06:22:19;27.33;;;18.40;;
68866;SDS011;56451;44.804;20.476;2023-05-20T06:24:45;27.05;;;17.85;;
68866;SDS011;56451;44.804;20.476;2023-05-20T06:27:11;29.17;;;17.88;;
68866;SDS011;56451;44.804;20.476;2023-05-20T06:29:37;22.67;;;16.27;;
68866;SDS011;56451;44.804;20.476;2023-05-20T06:32:03;22.87;;;15.67;;
68866;SDS011;56451;44.804;20.476;2023-05-20T06:34:30;24.38;;;16.60;;
68866;SDS011;56451;44.804;20.476;2023-05-20T06:36:55;26.92;;;17.00;;
68866;SDS011;56451;44.804;20.476;2023-05-20T06:39:22;23.60;;;16.85;;
68866;SDS011;56451;44.804;20.476;2023-05-20T06:41:47;26.07;;;17.77;;
68866;SDS011;56451;44.804;20.476;2023-05-20T06:44:25;24.92;;;16.75;;
68866;SDS011;56451;44.804;20.476;2023-05-20T06:46:57;24.67;;;17.05;;
68866;SDS011;56451;44.804;20.476;2023-05-20T06:49:23;24.50;;;16.52;;
68866;SDS011;56451;44.804;20.476;2023-05-20T06:51:49;23.63;;;14.87;;
68866;SDS011;56451;44.804;20.476;2023-05-20T06:54:15;24.95;;;14.80;;
68866;SDS011;56451;44.804;20.476;2023-05-20T06:56:42;19.30;;;13.57;;
68866;SDS011;56451;44.804;20.476;2023-05-20T06:59:09;22.08;;;14.30;;
68866;SDS011;56451;44.804;20.476;2023-05-20T07:01:35;21.55;;;12.95;;
68866;SDS011;56451;44.804;20.476;2023-05-20T07:04:02;17.90;;;11.73;;
68866;SDS011;56451;44.804;20.476;2023-05-20T07:06:28;16.63;;;11.30;;
68866;SDS011;56451;44.804;20.476;2023-05-20T07:08:56;16.70;;;10.75;;
68866;SDS011;56451;44.804;20.476;2023-05-20T07:11:23;17.15;;;10.10;;
68866;SDS011;56451;44.804;20.476;2023-05-20T07:13:48;16.60;;;10.23;;
68866;SDS011;56451;44.804;20.476;2023-05-20T07:16:15;16.83;;;9.73;;
68866;SDS011;56451;44.804;20.476;2023-05-20T07:18:45;19.27;;;9.75;;
68866;SDS011;56451;44.804;20.476;2023-05-20T07:21:11;13.30;;;8.50;;
68866;SDS011;56451;44.804;20.476;2023-05-20T07:23:56;13.35;;;8.32;;
68866;SDS011;56451;44.804;20.476;2023-05-20T07:26:22;14.57;;;8.50;;
68866;SDS011;56451;44.804;20.476;2023-05-20T07:28:48;17.40;;;10.23;;
68866;SDS011;56451;44.804;20.476;2023-05-20T07:31:14;15.73;;;10.85;;
68866;SDS011;56451;44.804;20.476;2023-05-20T07:33:42;17.30;;;10.02;;
68866;SDS011;56451;44.804;20.476;2023-05-20T07:36:08;14.80;;;10.47;;
68866;SDS011;56451;44.804;20.476;2023-05-20T07:38:34;17.20;;;8.60;;
68866;SDS011;56451;44.804;20.476;2023-05-20T07:41:03;12.80;;;8.80;;
68866;SDS011;56451;44.804;20.476;2023-05-20T07:43:30;12.40;;;8.70;;
68866;SDS011;56451;44.804;20.476;2023-05-20T07:45:57;10.80;;;8.65;;
68866;SDS011;56451;44.804;20.476;2023-05-20T07:48:23;12.60;;;9.00;;
68866;SDS011;56451;44.804;20.476;2023-05-20T07:50:49;11.75;;;8.45;;
68866;SDS011;56451;44.804;20.476;2023-05-20T07:53:16;12.60;;;8.50;;
68866;SDS011;56451;44.804;20.476;2023-05-20T07:55:43;12.80;;;7.90;;
68866;SDS011;56451;44.804;20.476;2023-05-20T07:58:09;11.73;;;8.50;;
68866;SDS011;56451;44.804;20.476;2023-05-20T08:00:35;16.70;;;9.13;;
68866;SDS011;56451;44.804;20.476;2023-05-20T08:03:05;13.48;;;8.60;;
68866;SDS011;56451;44.804;20.476;2023-05-20T08:05:55;14.95;;;9.18;;
68866;SDS011;56451;44.804;20.476;2023-05-20T08:08:21;14.15;;;9.13;;
68866;SDS011;56451;44.804;20.476;2023-05-20T08:11:07;13.15;;;8.35;;
68866;SDS011;56451;44.804;20.476;2023-05-20T08:13:34;14.10;;;8.90;;
68866;SDS011;56451;44.804;20.476;2023-05-20T08:16:01;11.77;;;8.38;;
68866;SDS011;56451;44.804;20.476;2023-05-20T08:18:30;16.52;;;9.60;;
68866;SDS011;56451;44.804;20.476;2023-05-20T08:20:57;11.68;;;8.85;;
68866;SDS011;56451;44.804;20.476;2023-05-20T08:23:24;13.02;;;8.75;;
68866;SDS011;56451;44.804;20.476;2023-05-20T08:25:50;12.87;;;8.93;;
68866;SDS011;56451;44.804;20.476;2023-05-20T08:28:19;12.25;;;7.97;;
68866;SDS011;56451;44.804;20.476;2023-05-20T08:30:46;11.25;;;8.18;;
68866;SDS011;56451;44.804;20.476;2023-05-20T08:33:13;13.35;;;9.38;;
68866;SDS011;56451;44.804;20.476;2023-05-20T08:35:40;12.88;;;9.10;;
68866;SDS011;56451;44.804;20.476;2023-05-20T08:38:06;11.37;;;8.20;;
68866;SDS011;56451;44.804;20.476;2023-05-20T08:40:35;13.10;;;8.98;;
68866;SDS011;56451;44.804;20.476;2023-05-20T08:43:01;14.27;;;9.45;;
68866;SDS011;56451;44.804;20.476;2023-05-20T08:45:30;15.73;;;9.85;;
68866;SDS011;56451;44.804;20.476;2023-05-20T08:48:02;13.80;;;10.38;;
68866;SDS011;56451;44.804;20.476;2023-05-20T08:50:32;14.60;;;10.70;;
68866;SDS011;56451;44.804;20.476;2023-05-20T08:52:58;16.45;;;10.77;;
68866;SDS011;56451;44.804;20.476;2023-05-20T08:55:29;18.20;;;10.68;;
68866;SDS011;56451;44.804;20.476;2023-05-20T08:58:01;13.82;;;9.63;;
68866;SDS011;56451;44.804;20.476;2023-05-20T09:00:27;18.20;;;9.77;;
68866;SDS011;56451;44.804;20.476;2023-05-20T09:02:54;18.43;;;11.30;;
68866;SDS011;56451;44.804;20.476;2023-05-20T09:05:21;14.85;;;10.50;;
68866;SDS011;56451;44.804;20.476;2023-05-20T09:07:47;12.05;;;8.80;;
68866;SDS011;56451;44.804;20.476;2023-05-20T09:10:13;13.20;;;8.90;;
68866;SDS011;56451;44.804;20.476;2023-05-20T09:12:40;14.70;;;9.40;;
68866;SDS011;56451;44.804;20.476;2023-05-20T09:15:06;18.73;;;10.17;;
68866;SDS011;56451;44.804;20.476;2023-05-20T09:17:36;13.88;;;9.32;;
68866;SDS011;56451;44.804;20.476;2023-05-20T09:20:06;14.07;;;9.35;;
68866;SDS011;56451;44.804;20.476;2023-05-20T09:22:34;12.23;;;8.88;;
68866;SDS011;56451;44.804;20.476;2023-05-20T09:24:59;10.87;;;7.70;;
68866;SDS011;56451;44.804;20.476;2023-05-20T09:27:26;11.63;;;9.20;;
68866;SDS011;56451;44.804;20.476;2023-05-20T09:29:52;17.15;;;9.38;;
68866;SDS011;56451;44.804;20.476;2023-05-20T09:32:19;11.80;;;9.30;;
68866;SDS011;56451;44.804;20.476;2023-05-20T09:34:48;12.37;;;8.10;;
68866;SDS011;56451;44.804;20.476;2023-05-20T09:37:16;13.18;;;8.65;;
68866;SDS011;56451;44.804;20.476;2023-05-20T09:39:53;13.52;;;8.88;;
68866;SDS011;56451;44.804;20.476;2023-05-20T09:42:34;11.45;;;8.40;;
68866;SDS011;56451;44.804;20.476;2023-05-20T09:45:04;12.48;;;8.93;;
68866;SDS011;56451;44.804;20.476;2023-05-20T09:47:34;10.80;;;8.33;;
68866;SDS011;56451;44.804;20.476;2023-05-20T09:50:04;14.65;;;8.55;;
68866;SDS011;56451;44.804;20.476;2023-05-20T09:52:33;11.70;;;8.63;;
68866;SDS011;56451;44.804;20.476;2023-05-20T09:55:02;13.88;;;8.40;;
68866;SDS011;56451;44.804;20.476;2023-05-20T09:57:33;10.82;;;8.60;;
68866;SDS011;56451;44.804;20.476;2023-05-20T10:00:00;13.60;;;7.83;;
68866;SDS011;56451;44.804;20.476;2023-05-20T10:02:40;15.77;;;8.30;;
68866;SDS011;56451;44.804;20.476;2023-05-20T10:05:10;12.18;;;8.23;;
68866;SDS011;56451;44.804;20.476;2023-05-20T10:20:54;10.13;;;7.32;;
68866;SDS011;56451;44.804;20.476;2023-05-20T10:23:23;10.83;;;8.17;;
68866;SDS011;56451;44.804;20.476;2023-05-20T10:25:54;11.57;;;8.30;;
68866;SDS011;56451;44.804;20.476;2023-05-20T10:28:27;9.68;;;7.53;;
68866;SDS011;56451;44.804;20.476;2023-05-20T10:30:55;11.73;;;7.40;;
68866;SDS011;56451;44.804;20.476;2023-05-20T10:33:22;9.85;;;7.75;;
68866;SDS011;56451;44.804;20.476;2023-05-20T10:35:51;8.40;;;7.13;;
68866;SDS011;56451;44.804;20.476;2023-05-20T10:38:17;11.65;;;6.78;;
68866;SDS011;56451;44.804;20.476;2023-05-20T10:40:45;10.77;;;7.28;;
68866;SDS011;56451;44.804;20.476;2023-05-20T10:43:14;13.73;;;7.78;;
68866;SDS011;56451;44.804;20.476;2023-05-20T10:45:53;11.00;;;7.18;;
68866;SDS011;56451;44.804;20.476;2023-05-20T10:48:25;9.97;;;6.80;;
68866;SDS011;56451;44.804;20.476;2023-05-20T10:50:56;10.50;;;7.10;;
68866;SDS011;56451;44.804;20.476;2023-05-20T10:53:25;9.43;;;6.22;;
68866;SDS011;56451;44.804;20.476;2023-05-20T10:55:52;10.75;;;7.47;;
68866;SDS011;56451;44.804;20.476;2023-05-20T10:58:20;8.45;;;6.82;;
68866;SDS011;56451;44.804;20.476;2023-05-20T11:00:48;11.60;;;6.80;;
68866;SDS011;56451;44.804;20.476;2023-05-20T11:03:15;9.63;;;7.30;;
68866;SDS011;56451;44.804;20.476;2023-05-20T11:05:45;10.05;;;7.13;;
68866;SDS011;56451;44.804;20.476;2023-05-20T11:08:12;8.82;;;6.38;;
68866;SDS011;56451;44.804;20.476;2023-05-20T11:10:40;10.85;;;6.72;;
68866;SDS011;56451;44.804;20.476;2023-05-20T11:13:07;9.13;;;7.23;;
68866;SDS011;56451;44.804;20.476;2023-05-20T11:15:33;11.05;;;6.80;;
68866;SDS011;56451;44.804;20.476;2023-05-20T11:18:00;10.57;;;6.22;;
68866;SDS011;56451;44.804;20.476;2023-05-20T11:20:28;15.23;;;6.90;;
68866;SDS011;56451;44.804;20.476;2023-05-20T11:22:55;9.37;;;7.07;;
68866;SDS011;56451;44.804;20.476;2023-05-20T11:25:21;8.95;;;6.38;;
68866;SDS011;56451;44.804;20.476;2023-05-20T11:27:48;8.93;;;6.65;;
68866;SDS011;56451;44.804;20.476;2023-05-20T11:30:15;8.93;;;7.07;;
68866;SDS011;56451;44.804;20.476;2023-05-20T11:32:42;9.02;;;6.95;;
68866;SDS011;56451;44.804;20.476;2023-05-20T11:35:24;9.07;;;6.67;;
68866;SDS011;56451;44.804;20.476;2023-05-20T11:37:54;7.78;;;6.88;;
68866;SDS011;56451;44.804;20.476;2023-05-20T11:40:26;7.53;;;6.43;;
68866;SDS011;56451;44.804;20.476;2023-05-20T11:42:53;13.25;;;6.78;;
68866;SDS011;56451;44.804;20.476;2023-05-20T11:45:23;8.98;;;6.20;;
68866;SDS011;56451;44.804;20.476;2023-05-20T11:48:00;8.87;;;6.50;;
68866;SDS011;56451;44.804;20.476;2023-05-20T11:50:33;10.82;;;7.25;;
68866;SDS011;56451;44.804;20.476;2023-05-20T11:53:06;9.68;;;6.57;;
68866;SDS011;56451;44.804;20.476;2023-05-20T11:55:33;10.18;;;6.85;;
68866;SDS011;56451;44.804;20.476;2023-05-20T11:58:09;8.70;;;7.13;;
68866;SDS011;56451;44.804;20.476;2023-05-20T12:00:35;11.20;;;7.07;;
68866;SDS011;56451;44.804;20.476;2023-05-20T12:03:01;8.32;;;6.90;;
68866;SDS011;56451;44.804;20.476;2023-05-20T12:05:27;9.85;;;7.05;;
68866;SDS011;56451;44.804;20.476;2023-05-20T12:07:53;8.73;;;6.47;;
68866;SDS011;56451;44.804;20.476;2023-05-20T12:10:18;10.53;;;7.07;;
68866;SDS011;56451;44.804;20.476;2023-05-20T12:12:44;9.93;;;7.22;;
68866;SDS011;56451;44.804;20.476;2023-05-20T12:15:10;10.52;;;7.30;;
68866;SDS011;56451;44.804;20.476;2023-05-20T12:17:46;13.60;;;7.63;;
68866;SDS011;56451;44.804;20.476;2023-05-20T12:20:14;12.07;;;7.13;;
68866;SDS011;56451;44.804;20.476;2023-05-20T12:22:42;10.82;;;7.47;;
68866;SDS011;56451;44.804;20.476;2023-05-20T12:25:12;9.18;;;6.88;;
68866;SDS011;56451;44.804;20.476;2023-05-20T12:27:40;11.48;;;7.05;;
68866;SDS011;56451;44.804;20.476;2023-05-20T12:30:07;8.57;;;7.27;;
68866;SDS011;56451;44.804;20.476;2023-05-20T12:32:35;10.30;;;6.82;;
68866;SDS011;56451;44.804;20.476;2023-05-20T12:35:02;13.13;;;7.78;;
68866;SDS011;56451;44.804;20.476;2023-05-20T12:37:28;8.95;;;7.28;;
68866;SDS011;56451;44.804;20.476;2023-05-20T12:39:54;11.20;;;7.05;;
68866;SDS011;56451;44.804;20.476;2023-05-20T12:42:20;12.67;;;6.60;;
68866;SDS011;56451;44.804;20.476;2023-05-20T12:44:46;8.73;;;6.63;;
68866;SDS011;56451;44.804;20.476;2023-05-20T12:47:12;10.25;;;6.90;;
68866;SDS011;56451;44.804;20.476;2023-05-20T12:49:38;8.85;;;6.97;;
68866;SDS011;56451;44.804;20.476;2023-05-20T12:52:04;10.13;;;7.60;;
68866;SDS011;56451;44.804;20.476;2023-05-20T12:54:31;10.65;;;7.85;;
68866;SDS011;56451;44.804;20.476;2023-05-20T12:56:58;8.80;;;7.28;;
68866;SDS011;56451;44.804;20.476;2023-05-20T12:59:24;12.45;;;7.18;;
68866;SDS011;56451;44.804;20.476;2023-05-20T13:01:50;8.07;;;6.63;;
68866;SDS011;56451;44.804;20.476;2023-05-20T13:04:16;9.60;;;7.13;;
68866;SDS011;56451;44.804;20.476;2023-05-20T13:06:42;7.75;;;6.25;;
68866;SDS011;56451;44.804;20.476;2023-05-20T13:09:07;10.82;;;7.25;;
68866;SDS011;56451;44.804;20.476;2023-05-20T13:11:34;11.45;;;7.75;;
68866;SDS011;56451;44.804;20.476;2023-05-20T13:14:00;10.00;;;7.80;;
68866;SDS011;56451;44.804;20.476;2023-05-20T13:16:25;10.50;;;7.53;;
68866;SDS011;56451;44.804;20.476;2023-05-20T13:18:52;9.55;;;7.32;;
68866;SDS011;56451;44.804;20.476;2023-05-20T13:21:17;13.33;;;7.13;;
68866;SDS011;56451;44.804;20.476;2023-05-20T13:23:43;9.32;;;7.30;;
68866;SDS011;56451;44.804;20.476;2023-05-20T13:26:09;9.73;;;6.97;;
68866;SDS011;56451;44.804;20.476;2023-05-20T13:28:35;9.10;;;6.60;;
68866;SDS011;56451;44.804;20.476;2023-05-20T13:31:03;14.18;;;7.30;;
68866;SDS011;56451;44.804;20.476;2023-05-20T13:33:30;11.57;;;7.57;;
68866;SDS011;56451;44.804;20.476;2023-05-20T13:35:56;10.10;;;7.22;;
68866;SDS011;56451;44.804;20.476;2023-05-20T13:38:22;8.15;;;6.68;;
68866;SDS011;56451;44.804;20.476;2023-05-20T13:40:47;9.17;;;6.30;;
68866;SDS011;56451;44.804;20.476;2023-05-20T13:43:14;9.55;;;6.53;;
68866;SDS011;56451;44.804;20.476;2023-05-20T13:45:40;8.05;;;6.32;;
68866;SDS011;56451;44.804;20.476;2023-05-20T13:48:07;8.02;;;6.55;;
68866;SDS011;56451;44.804;20.476;2023-05-20T13:50:33;9.15;;;6.60;;
68866;SDS011;56451;44.804;20.476;2023-05-20T13:52:59;9.37;;;6.07;;
68866;SDS011;56451;44.804;20.476;2023-05-20T13:55:25;8.23;;;6.63;;
68866;SDS011;56451;44.804;20.476;2023-05-20T13:57:51;10.10;;;6.85;;
68866;SDS011;56451;44.804;20.476;2023-05-20T14:00:19;10.32;;;7.35;;
68866;SDS011;56451;44.804;20.476;2023-05-20T14:02:45;8.50;;;6.80;;
68866;SDS011;56451;44.804;20.476;2023-05-20T14:05:11;9.93;;;7.40;;
68866;SDS011;56451;44.804;20.476;2023-05-20T14:07:38;9.35;;;6.97;;
68866;SDS011;56451;44.804;20.476;2023-05-20T14:10:04;11.25;;;7.00;;
68866;SDS011;56451;44.804;20.476;2023-05-20T14:12:31;10.15;;;7.35;;
68866;SDS011;56451;44.804;20.476;2023-05-20T14:14:56;10.87;;;7.63;;
68866;SDS011;56451;44.804;20.476;2023-05-20T14:17:22;11.35;;;7.18;;
68866;SDS011;56451;44.804;20.476;2023-05-20T14:19:48;8.00;;;6.87;;
68866;SDS011;56451;44.804;20.476;2023-05-20T14:22:14;8.93;;;7.10;;
68866;SDS011;56451;44.804;20.476;2023-05-20T14:24:40;8.30;;;6.97;;
68866;SDS011;56451;44.804;20.476;2023-05-20T14:27:06;10.15;;;6.40;;
68866;SDS011;56451;44.804;20.476;2023-05-20T14:29:32;9.13;;;6.50;;
68866;SDS011;56451;44.804;20.476;2023-05-20T14:31:58;8.77;;;7.15;;